Petersburg, VA (23804)

10:13 AM EST on January 30, 2015 (GMT -0500)
Virginia State University | Change Station
CLOSE
Current Station
Personal Weather Station
Location: Petersburg, VA
Elevation: 98 ft
Nearby Weather Stations

Elev 98 ft 37.24 °N, 77.42 °W | Updated 39 seconds ago

Overcast
Overcast
43.0 °F
Feels Like 43 °F
N
0.0
Wind Variable Wind from NNE

Today
High -- | Low -- °F
--% Chance of Precip.
Yesterday
High -- | Low -- °F
Precip. -- in
7:14 AM 5:31 PM
Waxing Gibbous, 83% visible
Pressure 30.03 in
Visibility 10.0 miles
Clouds Scattered Clouds 5000 ft
Overcast 6000 ft
Windchill 43 °F
Dew Point 28 °F
Humidity 56%
Rainfall 0.00 in
Snow Depth Not available.
UV 0.7 out of 12
Pollen 2.90 out of 12
Air Quality Not available.
Flu Activity Not available.
METAR KPTB 301455Z AUTO 31014G22KT 10SM SCT050 OVC060 07/M05 A3003 RMK AO2 T00711053

More Conditions Fewer Conditions

Pressure 30.03 in
Visibility 10.0 miles
Clouds Scattered Clouds 5000 ft
Overcast 6000 ft
Windchill 43 °F
Dew Point 28 °F
Humidity 56%
Rainfall 0.00 in
Snow Depth Not available.
UV 0.7 out of 12
Pollen 2.90 out of 12
Air Quality Not available.
Flu Activity Not available.
METAR KPTB 301455Z AUTO 31014G22KT 10SM SCT050 OVC060 07/M05 A3003 RMK AO2 T00711053

More Conditions Fewer Conditions

10-Day Weather Forecast

Almanac

Astronomy

Jan. 30, 2015 Rise Set
Actual Time
Civil Twilight
Nautical Twilight
Astronomical Twilight
Moon
Length of Visible Light
Length of Day
Tomorrow will be .
, % of the Moon is Illuminated

Today's Extremes

State Highs State Lows

Community

WunderPhotos

Upload Photos

1,791,784 photos uploaded!

WunderBlogs® & News

Nearby

Air Quality

  Air Quality AQ Index Pollutant
Not available.

Snow Depth

Station Depth Elevation

Earthquake Activity

City Distance Mag. Time & Date
Minimum magnitude displayed is 2.5.

Coastal Water Temperatures

Place Temperature

Nearby Weather Stations